Terminal Aerodrome Forecast
Issued by NWS

Home | Current Version | Previous Version | Text Only | Print | Product List | Glossary On
Versions: 1 2 3 4 5 6 7 8 9 10 11 12 13 14 15
000
FTUS42 KTAE 071743
TAFVLD
TAF
KVLD 071743Z 0718/0818 VRB04KT P6SM SCT040
      TEMPO 0720/0724 P6SM TSRA BKN050CB
     FM080000 00000KT P6SM BKN250=

USA.gov is the U.S. government's official web portal to all federal, state and local government web resources and services.